Time;durP1;ratioP1;P1;durP2;ratioP2;P2;SDS_P1;SDS_P2;PMS_P1;PMS_P2;Temp;Humidity;BMP_temperature;BMP_pressure;BME280_temperature;BME280_humidity;BME280_pressure;Samples;Min_cycle;Max_cycle;Signal;HPM_P1;HPM_P2
2022/07/26 00:00:32;;;;;;;14.80;11.95;;;;;;;19.33;92.54;95996.75;2049197;28;20529;-41
2022/07/26 00:01:33;;;;;;;17.95;13.20;;;;;;;19.30;92.20;95994.38;2048727;29;20054;-39
2022/07/26 00:02:34;;;;;;;18.35;13.10;;;;;;;19.31;92.77;95997.84;2056879;28;20504;-40
2022/07/26 00:03:35;;;;;;;21.23;13.55;;;;;;;19.31;92.75;96000.50;2065282;28;20046;-43
2022/07/26 00:04:36;;;;;;;17.42;13.05;;;;;;;19.29;93.05;96003.22;2056991;28;20043;-40
2022/07/26 00:05:37;;;;;;;17.38;12.60;;;;;;;19.30;93.40;96004.91;2073362;28;20042;-42
2022/07/26 00:06:39;;;;;;;15.77;13.13;;;;;;;19.26;93.72;96000.84;2064708;28;20547;-40
2022/07/26 00:07:40;;;;;;;22.75;13.85;;;;;;;19.23;93.68;96002.91;2049204;28;20517;-40
2022/07/26 00:08:41;;;;;;;16.55;13.75;;;;;;;19.21;93.71;95999.56;2056900;28;20066;-40
2022/07/26 00:09:42;;;;;;;20.88;12.82;;;;;;;19.27;93.53;95993.78;2056613;28;20054;-40
2022/07/26 00:10:47;;;;;;;17.83;13.80;;;;;;;19.26;93.76;96002.66;2049413;28;20056;-41
2022/07/26 00:11:48;;;;;;;17.30;13.68;;;;;;;19.23;93.57;95995.00;2057037;28;20054;-40
2022/07/26 00:12:49;;;;;;;14.68;12.57;;;;;;;19.30;93.49;96001.44;2064957;28;20061;-39
2022/07/26 00:13:50;;;;;;;16.33;13.85;;;;;;;19.32;93.50;95991.63;2057032;28;20042;-40
2022/07/26 00:14:52;;;;;;;16.10;13.70;;;;;;;19.34;93.56;95994.97;2056931;28;20051;-43
2022/07/26 00:15:53;;;;;;;17.90;13.50;;;;;;;19.32;93.17;95987.19;2064798;28;20057;-40
2022/07/26 00:16:54;;;;;;;17.30;12.93;;;;;;;19.35;93.28;95989.59;2056775;28;20054;-42
2022/07/26 00:17:55;;;;;;;18.17;13.52;;;;;;;19.42;93.59;95992.53;2048477;28;20051;-40
2022/07/26 00:18:56;;;;;;;17.70;12.95;;;;;;;19.33;93.74;95988.88;2041094;28;20430;-41
2022/07/26 00:19:58;;;;;;;20.42;13.77;;;;;;;19.30;93.51;95985.63;2049302;29;20055;-39
2022/07/26 00:20:59;;;;;;;15.38;13.50;;;;;;;19.30;93.78;95990.91;2065172;28;20054;-39
2022/07/26 00:22:32;;;;;;;16.92;13.65;;;;;;;19.29;94.61;95981.34;2072034;28;20072;-41
2022/07/26 00:23:21;;;;;;;17.50;14.00;;;;;;;19.27;93.52;95983.25;2064762;28;20100;-40
2022/07/26 00:24:22;;;;;;;22.10;14.55;;;;;;;19.23;93.86;95981.84;2067217;28;20049;-42
2022/07/26 00:25:24;;;;;;;18.83;14.30;;;;;;;19.21;94.00;95986.41;2057257;28;20050;-39
2022/07/26 00:26:25;;;;;;;18.80;13.38;;;;;;;19.26;93.61;95986.84;2057082;28;20050;-41
2022/07/26 00:27:27;;;;;;;18.35;13.90;;;;;;;19.31;93.34;95979.41;2064657;28;20407;-41
2022/07/26 00:28:28;;;;;;;20.10;14.43;;;;;;;19.29;93.81;95982.16;2048879;28;20477;-40
2022/07/26 00:29:29;;;;;;;14.82;13.10;;;;;;;19.25;93.95;95988.66;2064817;28;20050;-41
2022/07/26 00:30:30;;;;;;;16.08;13.43;;;;;;;19.22;93.89;95974.91;2064870;28;20643;-40
2022/07/26 00:31:31;;;;;;;17.25;14.18;;;;;;;19.21;93.48;95984.59;2056988;28;20047;-39
2022/07/26 00:32:32;;;;;;;19.33;13.50;;;;;;;19.26;94.08;95987.69;2064453;28;20427;-42
2022/07/26 00:33:34;;;;;;;15.48;13.00;;;;;;;19.25;93.70;95987.84;2064589;28;20054;-39
2022/07/26 00:34:35;;;;;;;15.02;12.95;;;;;;;19.28;93.99;95987.56;2064819;28;20464;-40
2022/07/26 00:35:36;;;;;;;15.10;11.93;;;;;;;19.30;93.54;95985.63;2057044;28;20046;-42
2022/07/26 00:36:37;;;;;;;16.10;11.82;;;;;;;19.32;93.74;95986.34;2048572;28;20452;-41
2022/07/26 00:37:38;;;;;;;18.95;11.63;;;;;;;19.27;93.35;95985.88;2049295;28;20047;-39
2022/07/26 00:38:40;;;;;;;13.68;10.60;;;;;;;19.26;92.99;95986.84;2056454;28;20043;-40
2022/07/26 00:39:42;;;;;;;12.02;10.68;;;;;;;19.27;93.15;95980.63;2072256;28;20053;-42
2022/07/26 00:40:43;;;;;;;15.15;11.68;;;;;;;19.29;93.59;95986.59;2064898;28;20093;-42
2022/07/26 00:41:45;;;;;;;15.15;11.77;;;;;;;19.32;93.55;95976.66;2064259;28;20057;-44
2022/07/26 00:42:46;;;;;;;14.40;11.48;;;;;;;19.33;93.01;95970.44;2056989;28;20050;-40
2022/07/26 00:43:56;;;;;;;14.80;11.07;;;;;;;19.27;93.05;95957.78;2056835;28;20055;-40
2022/07/26 00:44:57;;;;;;;17.38;11.80;;;;;;;19.31;92.77;95969.72;2058355;28;20054;-39
2022/07/26 00:45:58;;;;;;;14.50;11.10;;;;;;;19.24;92.97;95963.28;2064475;28;20475;-39
2022/07/26 00:46:59;;;;;;;15.15;11.68;;;;;;;19.24;93.15;95962.44;2064609;28;20050;-40
2022/07/26 00:48:01;;;;;;;18.98;12.50;;;;;;;19.17;93.37;95962.97;2040737;29;20063;-39
2022/07/26 00:49:02;;;;;;;16.15;11.32;;;;;;;19.18;93.49;95967.25;2048980;28;20061;-40
2022/07/26 00:50:05;;;;;;;13.85;10.93;;;;;;;19.21;92.99;95960.06;2064677;28;20049;-40
2022/07/26 00:51:06;;;;;;;15.73;10.43;;;;;;;19.26;93.26;95960.53;2064897;28;20062;-41
2022/07/26 00:52:08;;;;;;;15.13;10.02;;;;;;;19.29;92.75;95961.09;2071879;28;20090;-44
2022/07/26 00:53:09;;;;;;;15.88;10.45;;;;;;;19.28;92.86;95964.72;2057124;28;20524;-40
2022/07/26 00:54:10;;;;;;;15.57;10.18;;;;;;;19.29;92.42;95970.81;2049179;28;20055;-39
2022/07/26 00:55:11;;;;;;;14.77;10.35;;;;;;;19.25;92.53;95970.25;2065109;28;20042;-40
2022/07/26 00:56:14;;;;;;;14.57;10.13;;;;;;;19.23;93.23;95968.69;2064748;28;20050;-40
2022/07/26 00:57:15;;;;;;;13.32;10.43;;;;;;;19.21;92.78;95976.69;2057174;28;20406;-40
2022/07/26 00:58:17;;;;;;;12.55;10.20;;;;;;;19.21;93.17;95965.34;2057276;28;20042;-40
2022/07/26 00:59:18;;;;;;;13.95;10.20;;;;;;;19.26;93.37;95973.69;2064444;28;20068;-41
2022/07/26 01:00:21;;;;;;;13.27;10.13;;;;;;;19.21;93.64;95978.50;2064286;28;20061;-39
2022/07/26 01:01:22;;;;;;;15.32;10.07;;;;;;;19.20;93.33;95982.94;2064662;28;20042;-37
2022/07/26 01:02:24;;;;;;;13.65;9.88;;;;;;;19.14;93.08;95975.56;2056696;28;20043;-40
2022/07/26 01:03:25;;;;;;;14.48;10.07;;;;;;;19.14;93.63;95983.44;2048753;29;20047;-39
2022/07/26 01:04:27;;;;;;;12.00;9.35;;;;;;;19.11;93.74;95984.53;2056232;28;20455;-41
2022/07/26 01:05:28;;;;;;;10.95;8.65;;;;;;;19.14;93.46;95986.09;2064750;28;20109;-42
2022/07/26 01:06:29;;;;;;;13.25;8.13;;;;;;;19.18;92.73;95983.06;2064753;28;20038;-40
2022/07/26 01:07:31;;;;;;;16.85;8.13;;;;;;;19.23;91.33;95981.84;2057136;28;20082;-41
2022/07/26 01:08:32;;;;;;;12.60;8.75;;;;;;;19.16;92.47;95982.38;2064269;28;20049;-41
2022/07/26 01:09:33;;;;;;;11.90;8.77;;;;;;;19.13;92.93;95979.97;2056192;28;20039;-40
2022/07/26 01:10:34;;;;;;;13.32;8.73;;;;;;;19.09;93.15;95980.34;2056223;28;20042;-40
2022/07/26 01:11:36;;;;;;;12.70;9.27;;;;;;;19.09;93.38;95981.19;2056573;28;20115;-40
2022/07/26 01:12:38;;;;;;;11.27;8.05;;;;;;;19.08;93.19;95978.66;2056783;28;20053;-40
2022/07/26 01:13:47;;;;;;;10.50;8.57;;;;;;;19.05;92.79;95982.38;2064314;28;20042;-37
2022/07/26 01:14:48;;;;;;;14.52;9.18;;;;;;;19.03;92.58;95979.06;2057918;28;20050;-41
2022/07/26 01:15:50;;;;;;;11.98;8.25;;;;;;;19.05;92.85;95977.13;2056725;28;20050;-40
2022/07/26 01:16:51;;;;;;;12.38;8.20;;;;;;;19.06;92.21;95978.81;2056197;28;20469;-41
2022/07/26 01:17:52;;;;;;;12.68;8.23;;;;;;;19.04;92.82;95979.88;2056517;28;20055;-40
2022/07/26 01:18:53;;;;;;;10.82;7.63;;;;;;;18.99;92.79;95975.00;2064555;28;20523;-40
2022/07/26 01:19:54;;;;;;;11.30;8.02;;;;;;;19.00;93.17;95970.56;2056816;28;20050;-39
2022/07/26 01:20:56;;;;;;;12.02;8.57;;;;;;;18.97;92.63;95974.28;2056893;28;20043;-41
2022/07/26 01:21:57;;;;;;;9.88;8.43;;;;;;;18.96;93.04;95975.25;2057120;28;20046;-42
2022/07/26 01:22:58;;;;;;;10.07;8.05;;;;;;;19.01;92.04;95972.25;2055892;28;20055;-41
2022/07/26 01:23:59;;;;;;;10.15;8.60;;;;;;;18.98;92.29;95977.72;2056901;28;20094;-40
2022/07/26 01:25:00;;;;;;;15.25;8.05;;;;;;;18.96;91.71;95977.88;2072268;28;20057;-40
2022/07/26 01:26:02;;;;;;;11.50;8.18;;;;;;;18.92;92.03;95976.44;2072446;28;20042;-40
2022/07/26 01:27:03;;;;;;;12.18;8.27;;;;;;;18.89;92.31;95976.69;2056708;28;20046;-42
2022/07/26 01:28:05;;;;;;;10.88;8.27;;;;;;;18.92;92.65;95979.06;2056290;28;20054;-37
2022/07/26 01:29:06;;;;;;;11.57;8.18;;;;;;;18.92;92.16;95984.34;2056495;28;20046;-40
2022/07/26 01:30:09;;;;;;;12.30;8.48;;;;;;;18.91;92.89;95977.41;2056828;28;20054;-41
2022/07/26 01:31:10;;;;;;;11.05;8.07;;;;;;;18.93;92.69;95980.75;2072984;28;20554;-39
2022/07/26 01:32:13;;;;;;;12.43;8.25;;;;;;;18.98;93.09;95978.59;2072327;28;20038;-41
2022/07/26 01:33:14;;;;;;;11.52;8.85;;;;;;;18.94;93.33;95974.53;2057013;28;20555;-39
2022/07/26 01:34:16;;;;;;;13.07;8.27;;;;;;;18.95;92.93;95979.69;2048783;28;20051;-42
2022/07/26 01:35:17;;;;;;;13.20;8.93;;;;;;;18.93;93.04;95976.31;2056407;28;20055;-40
2022/07/26 01:36:18;;;;;;;10.30;8.30;;;;;;;18.93;92.74;95973.69;2063277;28;20046;-42
2022/07/26 01:37:19;;;;;;;13.20;9.00;;;;;;;18.96;92.93;95975.25;2056780;28;20070;-42
2022/07/26 01:38:20;;;;;;;12.90;8.35;;;;;;;18.95;92.74;95974.41;2063976;28;20428;-41
2022/07/26 01:39:22;;;;;;;11.10;8.63;;;;;;;18.91;92.80;95974.78;2064307;28;20047;-41
2022/07/26 01:40:23;;;;;;;12.88;8.73;;;;;;;18.92;92.81;95977.31;2072370;28;20046;-41
2022/07/26 01:41:24;;;;;;;12.80;9.27;;;;;;;18.96;93.37;95983.13;2064467;28;20046;-41
2022/07/26 01:42:26;;;;;;;12.10;8.25;;;;;;;18.95;92.96;95979.69;2048314;28;20043;-43
2022/07/26 01:43:27;;;;;;;11.77;8.30;;;;;;;18.91;92.64;95985.31;2064248;28;20053;-39
2022/07/26 01:44:28;;;;;;;11.85;8.93;;;;;;;18.96;93.02;95983.13;2072316;28;20037;-41
2022/07/26 01:45:30;;;;;;;12.48;8.85;;;;;;;19.01;92.61;95986.22;2056535;28;20043;-41
2022/07/26 01:46:32;;;;;;;12.95;7.85;;;;;;;19.00;92.31;95989.81;2056456;28;20050;-41
2022/07/26 01:47:33;;;;;;;12.40;8.13;;;;;;;19.01;92.52;95990.66;2056674;28;20050;-39
2022/07/26 01:48:34;;;;;;;12.50;8.07;;;;;;;18.93;92.12;95986.03;2064047;28;20043;-41
2022/07/26 01:49:36;;;;;;;10.35;8.27;;;;;;;18.93;91.91;95986.03;2056298;28;20529;-40
2022/07/26 01:50:37;;;;;;;11.57;8.45;;;;;;;18.95;92.09;95990.19;2048282;28;20051;-40
2022/07/26 01:51:38;;;;;;;10.40;8.57;;;;;;;18.95;92.06;95981.44;2056263;28;20031;-41
2022/07/26 01:52:39;;;;;;;11.65;8.18;;;;;;;18.91;92.33;95985.31;2055536;28;20043;-39
2022/07/26 01:53:43;;;;;;;12.35;9.00;;;;;;;18.94;92.50;95985.06;2040578;29;20517;-41
2022/07/26 01:54:45;;;;;;;10.48;7.88;;;;;;;18.84;92.27;95981.47;2049938;28;20059;-41
2022/07/26 01:55:46;;;;;;;9.27;7.57;;;;;;;18.84;92.01;95982.31;2048598;28;20448;-43
2022/07/26 01:56:47;;;;;;;11.23;8.55;;;;;;;18.84;91.91;95984.94;2040792;28;20063;-40
2022/07/26 01:57:49;;;;;;;12.02;8.10;;;;;;;18.84;92.54;95979.69;2056168;28;20568;-41
2022/07/26 01:58:50;;;;;;;11.07;8.07;;;;;;;18.84;92.25;95984.13;2063943;28;20057;-40
2022/07/26 01:59:51;;;;;;;13.45;8.05;;;;;;;18.80;92.36;95986.16;2056550;28;20051;-41
2022/07/26 02:00:53;;;;;;;11.32;7.80;;;;;;;18.80;92.52;95983.53;2056411;28;20131;-41
2022/07/26 02:01:54;;;;;;;9.90;8.15;;;;;;;18.86;92.41;95992.72;2072353;28;20057;-39
2022/07/26 02:02:55;;;;;;;13.75;8.50;;;;;;;18.85;92.52;95981.38;2072264;28;20072;-39
2022/07/26 02:03:56;;;;;;;10.93;8.30;;;;;;;18.78;92.39;95977.56;2064215;28;20050;-40
2022/07/26 02:04:58;;;;;;;13.20;8.57;;;;;;;18.82;92.97;95978.13;2055889;28;20050;-41
2022/07/26 02:05:59;;;;;;;10.57;8.40;;;;;;;18.83;92.59;95982.47;2072565;28;20054;-40
2022/07/26 02:07:00;;;;;;;12.10;8.30;;;;;;;18.85;92.57;95981.38;2063958;28;20102;-38
2022/07/26 02:08:02;;;;;;;11.40;8.00;;;;;;;18.85;92.89;95980.53;2056102;28;20050;-40
2022/07/26 02:09:03;;;;;;;14.18;8.60;;;;;;;18.87;92.27;95975.97;2055989;28;20049;-42
2022/07/26 02:10:05;;;;;;;11.52;8.35;;;;;;;18.88;92.64;95980.28;2056616;28;20546;-40
2022/07/26 02:11:06;;;;;;;14.73;8.15;;;;;;;18.93;92.92;95984.22;2048409;28;20055;-41
2022/07/26 02:12:07;;;;;;;10.77;8.15;;;;;;;18.92;92.36;95981.69;2047900;29;20095;-41
2022/07/26 02:13:08;;;;;;;13.13;7.75;;;;;;;18.93;92.71;95986.03;2063660;28;20046;-39
2022/07/26 02:14:10;;;;;;;11.05;7.47;;;;;;;18.91;92.48;95980.88;2064294;28;20046;-40
2022/07/26 02:15:12;;;;;;;11.70;7.63;;;;;;;18.91;92.51;95972.97;2056174;28;20740;-41
2022/07/26 02:16:13;;;;;;;11.43;7.70;;;;;;;18.93;92.12;95970.22;2056732;28;20054;-38
2022/07/26 02:17:15;;;;;;;10.57;7.28;;;;;;;18.95;92.29;95970.91;2055902;28;20117;-40
2022/07/26 02:18:16;;;;;;;13.23;7.72;;;;;;;18.93;92.21;95967.59;2063854;28;20058;-39
2022/07/26 02:19:17;;;;;;;8.57;7.07;;;;;;;18.94;92.37;95974.53;2063485;28;20058;-39
2022/07/26 02:20:18;;;;;;;11.20;7.25;;;;;;;18.90;92.70;95973.13;2063889;28;20539;-39
2022/07/26 02:21:20;;;;;;;11.60;7.47;;;;;;;18.92;92.41;95979.06;2063754;28;20042;-41
2022/07/26 02:22:21;;;;;;;9.43;7.45;;;;;;;18.92;92.35;95984.34;2063854;28;20042;-39
2022/07/26 02:23:22;;;;;;;10.60;7.53;;;;;;;18.93;91.95;95981.59;2071791;28;20045;-39
2022/07/26 02:24:26;;;;;;;10.25;7.60;;;;;;;18.89;92.09;95985.41;2064532;28;20101;-41
2022/07/26 02:25:27;;;;;;;10.13;7.78;;;;;;;18.88;92.28;95985.56;2040770;28;20413;-37
2022/07/26 02:26:28;;;;;;;12.60;7.15;;;;;;;18.86;92.34;95990.94;2048586;28;20051;-38
2022/07/26 02:27:29;;;;;;;10.13;7.30;;;;;;;18.88;92.71;95985.56;2056298;28;20034;-38
2022/07/26 02:28:30;;;;;;;9.90;7.90;;;;;;;18.82;91.98;95992.16;2055992;28;20053;-40
2022/07/26 02:29:32;;;;;;;14.90;7.72;;;;;;;18.82;92.47;95991.28;2064129;28;20158;-42
2022/07/26 02:30:33;;;;;;;10.98;7.63;;;;;;;18.80;91.83;95987.97;2080732;28;20525;-35
2022/07/26 02:31:34;;;;;;;9.50;7.05;;;;;;;18.83;92.32;95985.09;2055725;28;20400;-42
2022/07/26 02:32:35;;;;;;;11.52;7.22;;;;;;;18.74;92.47;95986.63;2066470;23;20042;-45
2022/07/26 02:33:36;;;;;;;9.23;7.60;;;;;;;18.67;92.70;95983.63;2069648;28;20053;-41
2022/07/26 02:34:38;;;;;;;8.45;7.55;;;;;;;18.70;92.13;95980.75;2047970;28;20043;-42
2022/07/26 02:35:39;;;;;;;10.93;7.25;;;;;;;18.71;92.74;95987.72;2048431;28;20406;-44
2022/07/26 02:36:40;;;;;;;13.45;7.97;;;;;;;18.68;93.27;95987.09;2071665;28;20045;-45
2022/07/26 02:37:41;;;;;;;11.73;8.15;;;;;;;18.70;92.87;95985.19;2071583;28;20053;-44
2022/07/26 02:38:43;;;;;;;11.85;8.18;;;;;;;18.65;92.79;95982.09;2071445;28;20054;-45
2022/07/26 02:39:44;;;;;;;11.25;7.53;;;;;;;18.64;93.11;95991.78;2063693;28;20475;-42
2022/07/26 02:40:45;;;;;;;9.98;7.50;;;;;;;18.67;92.35;95988.91;2055722;28;20110;-44
2022/07/26 02:41:47;;;;;;;9.05;7.22;;;;;;;18.62;92.88;95988.44;2063391;28;20054;-46
2022/07/26 02:42:48;;;;;;;10.90;7.90;;;;;;;18.57;93.00;95985.31;2051656;28;20047;-44
2022/07/26 02:43:50;;;;;;;11.27;7.93;;;;;;;18.61;93.81;95986.78;2040087;29;20044;-42
2022/07/26 02:44:52;;;;;;;14.07;8.23;;;;;;;18.58;93.62;95984.38;2039863;29;20047;-45
2022/07/26 02:45:54;;;;;;;13.18;8.48;;;;;;;18.52;93.79;95982.22;2048508;28;20139;-42
2022/07/26 02:46:55;;;;;;;11.30;8.55;;;;;;;18.51;93.76;95986.66;2048064;29;20055;-45
2022/07/26 02:47:56;;;;;;;12.82;8.60;;;;;;;18.52;94.03;95983.09;2042276;28;20047;-41
2022/07/26 02:48:59;;;;;;;10.38;8.18;;;;;;;18.52;93.33;95975.19;2059716;28;20050;-44
2022/07/26 02:50:00;;;;;;;12.63;8.57;;;;;;;18.54;93.84;95968.97;2058413;28;20678;-43
2022/07/26 02:51:02;;;;;;;13.75;8.63;;;;;;;18.48;94.07;95967.66;2050796;28;20066;-43
2022/07/26 02:52:03;;;;;;;12.10;8.52;;;;;;;18.48;93.93;95968.50;2042831;28;20055;-44
2022/07/26 02:53:05;;;;;;;11.80;8.60;;;;;;;18.49;94.37;95970.16;2043046;29;20047;-45
2022/07/26 02:54:06;;;;;;;14.70;8.07;;;;;;;18.51;94.24;95968.25;2043319;28;20050;-45
2022/07/26 02:55:08;;;;;;;12.85;7.93;;;;;;;18.54;93.71;95963.72;2058244;28;20047;-45
2022/07/26 02:56:09;;;;;;;11.32;8.27;;;;;;;18.60;93.19;95960.59;2066375;28;20054;-46
2022/07/26 02:57:12;;;;;;;14.32;8.35;;;;;;;18.63;93.08;95963.81;2066579;28;20054;-41
2022/07/26 02:58:13;;;;;;;12.00;7.55;;;;;;;18.52;93.34;95964.69;2058371;28;20061;-44
2022/07/26 02:59:15;;;;;;;13.93;7.80;;;;;;;18.55;93.38;95968.84;2058257;28;20050;-42
2022/07/26 03:00:20;;;;;;;13.75;8.05;;;;;;;18.52;93.70;95964.69;2058526;28;20049;-41
2022/07/26 03:01:21;;;;;;;11.32;8.57;;;;;;;18.51;94.18;95964.78;2058955;28;20046;-46
2022/07/26 03:02:22;;;;;;;15.40;8.23;;;;;;;18.50;93.47;95971.00;2057974;28;20050;-43
2022/07/26 03:03:24;;;;;;;15.43;7.75;;;;;;;18.51;93.27;95965.63;2058841;28;20050;-44
2022/07/26 03:04:25;;;;;;;12.07;7.93;;;;;;;18.51;93.96;95975.31;2066698;28;20401;-44
2022/07/26 03:05:26;;;;;;;11.63;7.72;;;;;;;18.49;93.94;95979.84;2059617;28;20053;-43
2022/07/26 03:06:27;;;;;;;12.48;7.35;;;;;;;18.48;93.25;95980.81;2066828;28;20523;-43
2022/07/26 03:07:28;;;;;;;17.50;8.35;;;;;;;18.46;93.71;95980.91;2050784;28;20098;-43
2022/07/26 03:08:30;;;;;;;15.63;8.38;;;;;;;18.45;94.00;95983.69;2051135;28;20058;-45
2022/07/26 03:09:31;;;;;;;13.80;8.40;;;;;;;18.45;93.79;95986.31;2050522;29;20047;-44
2022/07/26 03:10:32;;;;;;;15.55;7.63;;;;;;;18.50;93.45;95987.63;2049850;29;20035;-45
2022/07/26 03:11:33;;;;;;;19.58;8.90;;;;;;;18.48;93.45;95983.44;2066159;28;20551;-42
2022/07/26 03:12:35;;;;;;;18.00;8.40;;;;;;;18.48;93.71;95988.69;2058672;28;20046;-42
2022/07/26 03:13:36;;;;;;;16.33;8.55;;;;;;;18.46;93.65;95993.22;2058182;28;20050;-45
2022/07/26 03:14:37;;;;;;;17.40;8.15;;;;;;;18.50;93.77;95989.41;2058664;28;20039;-41
2022/07/26 03:15:38;;;;;;;18.17;8.88;;;;;;;18.49;93.69;95985.09;2066092;28;20104;-43
2022/07/26 03:16:39;;;;;;;25.88;9.02;;;;;;;18.43;94.10;95993.47;2050336;28;20043;-42
2022/07/26 03:17:41;;;;;;;17.17;8.38;;;;;;;18.50;93.21;95995.50;2050251;28;20043;-41
2022/07/26 03:18:42;;;;;;;15.27;7.57;;;;;;;18.50;93.59;95995.50;2050654;28;20055;-43
2022/07/26 03:19:43;;;;;;;34.10;9.60;;;;;;;18.46;93.57;95995.88;2042852;29;20050;-43
2022/07/26 03:20:44;;;;;;;23.92;8.85;;;;;;;18.44;93.78;95997.78;2058002;28;20042;-45
2022/07/26 03:21:45;;;;;;;22.02;8.77;;;;;;;18.46;93.93;95998.50;2066522;28;20105;-44
2022/07/26 03:22:46;;;;;;;16.50;8.65;;;;;;;18.41;93.93;95998.00;2058104;28;20046;-44
2022/07/26 03:23:48;;;;;;;24.85;8.10;;;;;;;18.43;93.97;95991.69;2050879;28;20058;-43
2022/07/26 03:24:49;;;;;;;22.85;9.55;;;;;;;18.42;94.35;95997.06;2050586;28;20051;-43
2022/07/26 03:25:50;;;;;;;22.15;8.07;;;;;;;18.47;94.38;95992.25;2057615;28;20055;-43
2022/07/26 03:26:51;;;;;;;25.13;8.90;;;;;;;18.52;93.43;95992.75;2066114;28;20053;-43
2022/07/26 03:27:55;;;;;;;21.42;8.85;;;;;;;18.48;93.76;95991.31;2051081;28;20055;-46
2022/07/26 03:28:57;;;;;;;20.05;8.93;;;;;;;18.53;93.91;95991.81;2052015;28;20050;-43
2022/07/26 03:29:58;;;;;;;17.40;8.90;;;;;;;18.51;93.98;95998.97;2058190;28;20047;-43
2022/07/26 03:31:00;;;;;;;23.67;8.82;;;;;;;18.51;94.35;95991.09;2042474;29;20058;-42
2022/07/26 03:32:01;;;;;;;24.52;8.50;;;;;;;18.55;94.26;95987.25;2050062;28;20047;-44
2022/07/26 03:33:02;;;;;;;21.65;8.70;;;;;;;18.56;93.99;95993.34;2066599;28;20435;-42
2022/07/26 03:34:03;;;;;;;21.20;9.05;;;;;;;18.59;93.36;95995.75;2066248;28;20054;-44
2022/07/26 03:35:05;;;;;;;18.33;9.10;;;;;;;18.61;93.04;95993.84;2050178;28;20055;-42
2022/07/26 03:36:09;;;;;;;16.05;8.68;;;;;;;18.49;93.62;95999.06;2065918;28;20046;-42
2022/07/26 03:37:11;;;;;;;20.60;9.90;;;;;;;18.55;93.44;96002.19;2065477;28;20050;-46
2022/07/26 03:38:12;;;;;;;24.65;9.15;;;;;;;18.57;93.49;95995.84;2050980;28;20043;-43
2022/07/26 03:39:13;;;;;;;23.27;9.57;;;;;;;18.56;93.78;95994.19;2058228;28;20051;-45
2022/07/26 03:40:15;;;;;;;19.63;9.18;;;;;;;18.56;93.49;96004.69;2049932;28;20055;-43
2022/07/26 03:41:16;;;;;;;21.30;8.43;;;;;;;18.56;94.05;95999.44;2051015;28;20081;-40
2022/07/26 03:42:17;;;;;;;20.38;8.80;;;;;;;18.48;94.05;96002.69;2064433;28;20045;-44
2022/07/26 03:43:18;;;;;;;23.02;9.82;;;;;;;18.51;93.73;96001.59;2074250;28;20049;-42
2022/07/26 03:44:19;;;;;;;23.60;9.25;;;;;;;18.61;93.16;96001.72;2066555;28;20057;-43
2022/07/26 03:45:21;;;;;;;20.23;9.00;;;;;;;18.59;93.14;95999.19;2066548;28;20038;-43
2022/07/26 03:46:22;;;;;;;17.55;8.65;;;;;;;18.58;93.15;96008.06;2066350;28;20061;-43
2022/07/26 03:47:23;;;;;;;23.48;9.68;;;;;;;18.56;93.46;96001.25;2050396;29;20054;-45
2022/07/26 03:48:25;;;;;;;27.27;9.70;;;;;;;18.51;93.87;96002.44;2050579;28;20039;-43
2022/07/26 03:49:26;;;;;;;20.48;9.68;;;;;;;18.48;93.98;96002.69;2065750;28;20068;-43
2022/07/26 03:50:27;;;;;;;24.90;9.10;;;;;;;18.46;93.71;95995.88;2074183;28;20056;-44
2022/07/26 03:51:28;;;;;;;23.52;9.82;;;;;;;18.44;94.35;95992.50;2074611;28;20046;-43
2022/07/26 03:52:30;;;;;;;20.15;9.77;;;;;;;18.43;94.07;95993.47;2073505;28;20590;-44
2022/07/26 03:53:31;;;;;;;25.10;9.38;;;;;;;18.44;94.31;95993.38;2074246;28;20053;-42
2022/07/26 03:54:32;;;;;;;19.00;9.43;;;;;;;18.53;94.13;95989.16;2074178;28;20045;-43
2022/07/26 03:56:55;;;;;;;23.67;9.10;;;;;;;18.52;93.39;95988.34;2063826;28;20050;-42
2022/07/26 03:57:56;;;;;;;21.58;10.20;;;;;;;18.49;93.77;95999.06;2066382;28;20496;-44
2022/07/26 03:58:59;;;;;;;17.40;9.30;;;;;;;18.45;93.67;96000.28;2064953;28;20542;-43
2022/07/26 04:00:00;;;;;;;23.75;9.90;;;;;;;18.48;93.68;95994.78;2072312;28;20069;-44
2022/07/26 04:01:01;;;;;;;22.67;9.80;;;;;;;18.48;94.13;95997.41;2073210;28;20049;-43
2022/07/26 04:02:02;;;;;;;25.35;10.23;;;;;;;18.46;93.91;95998.50;2064646;28;20046;-44
2022/07/26 04:03:03;;;;;;;19.27;9.40;;;;;;;18.46;94.32;96001.13;2064722;28;20046;-41
2022/07/26 04:04:05;;;;;;;14.98;9.93;;;;;;;18.45;94.50;95997.66;2072921;28;20451;-43
2022/07/26 04:05:06;;;;;;;20.02;10.68;;;;;;;18.49;93.98;96000.88;2073432;28;20064;-44
2022/07/26 04:06:07;;;;;;;24.80;10.55;;;;;;;18.51;94.46;96004.22;2064966;28;20046;-43
2022/07/26 04:07:09;;;;;;;20.15;10.18;;;;;;;18.49;94.41;95999.06;2056364;28;20057;-43
2022/07/26 04:08:10;;;;;;;18.63;9.25;;;;;;;18.58;93.67;95996.69;2057533;28;20054;-45
2022/07/26 04:09:11;;;;;;;17.00;9.52;;;;;;;18.57;93.54;96003.72;2056737;28;20520;-44
2022/07/26 04:10:14;;;;;;;32.72;10.60;;;;;;;18.60;94.04;96000.84;2056502;28;20050;-43
2022/07/26 04:11:15;;;;;;;17.00;10.90;;;;;;;18.56;94.02;95998.63;2056967;28;20046;-42
2022/07/26 04:12:17;;;;;;;16.38;10.43;;;;;;;18.54;94.36;95998.72;2065142;28;20089;-43
2022/07/26 04:13:18;;;;;;;19.77;10.75;;;;;;;18.48;93.92;96002.69;2065223;28;20049;-43
2022/07/26 04:14:20;;;;;;;20.35;10.32;;;;;;;18.48;94.30;95993.97;2057451;28;20524;-44
2022/07/26 04:15:21;;;;;;;20.42;10.80;;;;;;;18.51;94.78;95996.34;2064588;28;20048;-45
2022/07/26 04:16:22;;;;;;;20.60;10.85;;;;;;;18.52;94.86;95996.22;2065244;28;20432;-42
2022/07/26 04:17:23;;;;;;;19.27;10.65;;;;;;;18.49;93.66;95999.06;2049014;28;20047;-44
2022/07/26 04:18:25;;;;;;;19.75;11.15;;;;;;;18.44;94.47;95997.78;2057482;28;20046;-46
2022/07/26 04:19:26;;;;;;;16.75;10.35;;;;;;;18.42;93.82;95997.91;2064448;28;20069;-43
2022/07/26 04:20:27;;;;;;;18.92;10.82;;;;;;;18.44;94.21;95992.50;2056531;28;20046;-44
2022/07/26 04:21:28;;;;;;;18.30;10.70;;;;;;;18.43;94.48;95996.94;2049015;28;20521;-42
2022/07/26 04:22:30;;;;;;;21.38;10.25;;;;;;;18.46;94.40;95998.50;2048884;29;20043;-43
2022/07/26 04:23:31;;;;;;;22.10;10.73;;;;;;;18.46;93.80;96003.75;2049107;28;20031;-44
2022/07/26 04:24:33;;;;;;;20.25;10.85;;;;;;;18.43;94.05;95999.56;2049393;28;20030;-43
2022/07/26 04:25:34;;;;;;;22.45;11.13;;;;;;;18.43;93.90;96002.19;2056719;28;20051;-43
2022/07/26 04:26:35;;;;;;;22.90;10.15;;;;;;;18.48;93.50;96004.47;2056874;28;20050;-45
2022/07/26 04:27:36;;;;;;;21.15;11.32;;;;;;;18.42;93.49;96008.44;2056883;28;20676;-43
2022/07/26 04:28:38;;;;;;;17.15;9.93;;;;;;;18.49;93.77;96003.50;2057312;28;20105;-41
2022/07/26 04:29:39;;;;;;;20.92;9.65;;;;;;;18.54;93.16;96011.88;2056559;28;20051;-42
2022/07/26 04:30:40;;;;;;;18.65;10.20;;;;;;;18.49;94.16;96006.13;2048624;28;20077;-43
2022/07/26 04:31:41;;;;;;;19.27;10.70;;;;;;;18.52;93.29;96004.13;2064138;28;20054;-45
2022/07/26 04:32:43;;;;;;;16.10;9.43;;;;;;;18.49;93.87;96006.13;2072723;28;20048;-42
2022/07/26 04:33:45;;;;;;;23.55;10.77;;;;;;;18.48;93.84;96015.00;2056934;28;20413;-42
2022/07/26 04:34:46;;;;;;;21.15;11.45;;;;;;;18.41;94.02;96021.69;2057749;28;20046;-44
2022/07/26 04:35:47;;;;;;;23.42;11.23;;;;;;;18.37;94.47;96015.00;2064909;28;20061;-43
2022/07/26 04:36:48;;;;;;;19.73;11.45;;;;;;;18.37;94.77;96021.09;2064764;28;20046;-40
2022/07/26 04:37:49;;;;;;;23.98;10.90;;;;;;;18.40;94.32;96022.66;2072394;28;20050;-46
2022/07/26 04:38:51;;;;;;;21.63;11.38;;;;;;;18.38;95.09;96027.19;2072899;28;20126;-44
2022/07/26 04:39:52;;;;;;;19.42;11.15;;;;;;;18.40;95.29;96020.00;2072025;28;20058;-44
2022/07/26 04:40:54;;;;;;;23.73;11.38;;;;;;;18.38;94.97;96024.56;2064968;28;20042;-43
2022/07/26 04:41:56;;;;;;;21.02;11.73;;;;;;;18.37;95.29;96026.34;2056356;28;20043;-46
2022/07/26 04:42:57;;;;;;;19.45;11.20;;;;;;;18.35;95.66;96024.78;2056538;28;20133;-45
2022/07/26 04:43:58;;;;;;;15.02;10.82;;;;;;;18.35;95.32;96022.16;2056481;28;20055;-44
2022/07/26 04:45:00;;;;;;;18.05;9.25;;;;;;;18.28;94.35;96027.91;2056718;28;20046;-44
2022/07/26 04:46:01;;;;;;;17.20;11.02;;;;;;;18.32;95.07;96032.91;2056849;28;20058;-43